sensor_id;sensor_type;location;lat;lon;timestamp;pressure;altitude;pressure_sealevel;temperature;humidity
57568;BME280;43403;51.948;5.922;2023-08-08T00:01:56;101351.16;;;14.94;100.00
57568;BME280;43403;51.948;5.922;2023-08-08T00:04:23;101344.34;;;14.83;100.00
57568;BME280;43403;51.948;5.922;2023-08-08T00:06:50;101344.69;;;14.80;100.00
57568;BME280;43403;51.948;5.922;2023-08-08T00:09:16;101341.53;;;14.77;100.00
57568;BME280;43403;51.948;5.922;2023-08-08T00:11:43;101331.28;;;14.74;100.00
57568;BME280;43403;51.948;5.922;2023-08-08T00:14:09;101339.34;;;14.64;100.00
57568;BME280;43403;51.948;5.922;2023-08-08T00:16:36;101335.06;;;14.63;100.00
57568;BME280;43403;51.948;5.922;2023-08-08T00:19:02;101331.63;;;14.62;100.00
57568;BME280;43403;51.948;5.922;2023-08-08T00:21:29;101329.28;;;14.59;100.00
57568;BME280;43403;51.948;5.922;2023-08-08T00:23:56;101320.88;;;14.64;100.00
57568;BME280;43403;51.948;5.922;2023-08-08T00:26:22;101330.59;;;14.63;100.00
57568;BME280;43403;51.948;5.922;2023-08-08T00:28:49;101320.53;;;14.59;100.00
57568;BME280;43403;51.948;5.922;2023-08-08T00:31:15;101331.63;;;14.62;100.00
57568;BME280;43403;51.948;5.922;2023-08-08T00:33:44;101321.38;;;14.59;100.00
57568;BME280;43403;51.948;5.922;2023-08-08T00:36:10;101324.91;;;14.50;100.00
57568;BME280;43403;51.948;5.922;2023-08-08T00:38:37;101318.00;;;14.49;100.00
57568;BME280;43403;51.948;5.922;2023-08-08T00:41:04;101316.84;;;14.52;100.00
57568;BME280;43403;51.948;5.922;2023-08-08T00:43:31;101320.31;;;14.52;100.00
57568;BME280;43403;51.948;5.922;2023-08-08T00:45:57;101327.81;;;14.57;100.00
57568;BME280;43403;51.948;5.922;2023-08-08T00:48:24;101316.41;;;14.56;100.00
57568;BME280;43403;51.948;5.922;2023-08-08T00:50:52;101319.53;;;14.60;100.00
57568;BME280;43403;51.948;5.922;2023-08-08T00:53:18;101313.59;;;14.58;100.00
57568;BME280;43403;51.948;5.922;2023-08-08T00:55:49;101311.47;;;14.61;100.00
57568;BME280;43403;51.948;5.922;2023-08-08T00:58:17;101313.13;;;14.62;100.00
57568;BME280;43403;51.948;5.922;2023-08-08T01:00:44;101314.78;;;14.63;100.00
57568;BME280;43403;51.948;5.922;2023-08-08T01:03:11;101308.84;;;14.70;100.00
57568;BME280;43403;51.948;5.922;2023-08-08T01:05:53;101314.47;;;14.75;100.00
57568;BME280;43403;51.948;5.922;2023-08-08T01:08:27;101315.13;;;14.77;100.00
57568;BME280;43403;51.948;5.922;2023-08-08T01:10:58;101315.81;;;14.79;100.00
57568;BME280;43403;51.948;5.922;2023-08-08T01:13:27;101324.22;;;14.82;100.00
57568;BME280;43403;51.948;5.922;2023-08-08T01:15:55;101316.47;;;14.81;100.00
57568;BME280;43403;51.948;5.922;2023-08-08T01:18:24;101317.28;;;14.81;100.00
57568;BME280;43403;51.948;5.922;2023-08-08T01:20:52;101315.97;;;14.86;100.00
57568;BME280;43403;51.948;5.922;2023-08-08T01:23:22;101313.00;;;14.89;100.00
57568;BME280;43403;51.948;5.922;2023-08-08T01:25:50;101310.53;;;14.87;100.00
57568;BME280;43403;51.948;5.922;2023-08-08T01:28:22;101308.41;;;14.91;100.00
57568;BME280;43403;51.948;5.922;2023-08-08T01:30:50;101312.84;;;14.90;100.00
57568;BME280;43403;51.948;5.922;2023-08-08T01:33:16;101320.13;;;14.88;100.00
57568;BME280;43403;51.948;5.922;2023-08-08T01:35:54;101311.69;;;14.93;100.00
57568;BME280;43403;51.948;5.922;2023-08-08T01:38:26;101320.94;;;14.97;100.00
57568;BME280;43403;51.948;5.922;2023-08-08T01:40:56;101316.16;;;14.92;100.00
57568;BME280;43403;51.948;5.922;2023-08-08T01:43:24;101311.03;;;14.91;100.00
57568;BME280;43403;51.948;5.922;2023-08-08T01:45:52;101303.09;;;14.82;100.00
57568;BME280;43403;51.948;5.922;2023-08-08T01:48:19;101295.69;;;14.78;100.00
57568;BME280;43403;51.948;5.922;2023-08-08T01:50:45;101307.06;;;14.78;100.00
57568;BME280;43403;51.948;5.922;2023-08-08T01:53:12;101298.94;;;14.72;100.00
57568;BME280;43403;51.948;5.922;2023-08-08T01:55:38;101303.06;;;14.66;100.00
57568;BME280;43403;51.948;5.922;2023-08-08T01:58:05;101302.38;;;14.64;100.00
57568;BME280;43403;51.948;5.922;2023-08-08T02:00:32;101304.69;;;14.59;100.00
57568;BME280;43403;51.948;5.922;2023-08-08T02:02:59;101298.22;;;14.53;100.00
57568;BME280;43403;51.948;5.922;2023-08-08T02:05:25;101298.75;;;14.57;100.00
57568;BME280;43403;51.948;5.922;2023-08-08T02:07:52;101294.09;;;14.51;100.00
57568;BME280;43403;51.948;5.922;2023-08-08T02:10:18;101300.50;;;14.48;100.00
57568;BME280;43403;51.948;5.922;2023-08-08T02:12:45;101296.22;;;14.47;100.00
57568;BME280;43403;51.948;5.922;2023-08-08T02:15:11;101288.31;;;14.47;100.00
57568;BME280;43403;51.948;5.922;2023-08-08T02:17:38;101278.25;;;14.51;100.00
57568;BME280;43403;51.948;5.922;2023-08-08T02:20:06;101274.78;;;14.50;100.00
57568;BME280;43403;51.948;5.922;2023-08-08T02:22:33;101270.34;;;14.51;100.00
57568;BME280;43403;51.948;5.922;2023-08-08T02:25:00;101265.72;;;14.53;100.00
57568;BME280;43403;51.948;5.922;2023-08-08T02:27:27;101260.44;;;14.53;100.00
57568;BME280;43403;51.948;5.922;2023-08-08T02:29:53;101261.47;;;14.60;100.00
57568;BME280;43403;51.948;5.922;2023-08-08T02:32:20;101258.34;;;14.56;100.00
57568;BME280;43403;51.948;5.922;2023-08-08T02:34:46;101261.56;;;14.50;100.00
57568;BME280;43403;51.948;5.922;2023-08-08T02:37:13;101260.25;;;14.54;100.00
57568;BME280;43403;51.948;5.922;2023-08-08T02:39:40;101256.94;;;14.52;100.00
57568;BME280;43403;51.948;5.922;2023-08-08T02:42:07;101256.28;;;14.50;100.00
57568;BME280;43403;51.948;5.922;2023-08-08T02:44:33;101257.97;;;14.51;100.00
57568;BME280;43403;51.948;5.922;2023-08-08T02:47:00;101257.97;;;14.51;100.00
57568;BME280;43403;51.948;5.922;2023-08-08T02:49:27;101260.44;;;14.44;100.00
57568;BME280;43403;51.948;5.922;2023-08-08T02:51:53;101266.69;;;14.43;100.00
57568;BME280;43403;51.948;5.922;2023-08-08T02:54:20;101259.91;;;14.41;100.00
57568;BME280;43403;51.948;5.922;2023-08-08T02:56:46;101256.09;;;14.35;100.00
57568;BME280;43403;51.948;5.922;2023-08-08T02:59:13;101256.91;;;14.36;100.00
57568;BME280;43403;51.948;5.922;2023-08-08T03:01:39;101250.50;;;14.38;100.00
57568;BME280;43403;51.948;5.922;2023-08-08T03:04:06;101241.91;;;14.36;100.00
57568;BME280;43403;51.948;5.922;2023-08-08T03:06:32;101252.13;;;14.31;100.00
57568;BME280;43403;51.948;5.922;2023-08-08T03:08:59;101247.16;;;14.28;100.00
57568;BME280;43403;51.948;5.922;2023-08-08T03:11:25;101254.75;;;14.23;100.00
57568;BME280;43403;51.948;5.922;2023-08-08T03:13:52;101248.31;;;14.17;100.00
57568;BME280;43403;51.948;5.922;2023-08-08T03:16:18;101253.41;;;14.19;100.00
57568;BME280;43403;51.948;5.922;2023-08-08T03:18:45;101262.81;;;14.13;100.00
57568;BME280;43403;51.948;5.922;2023-08-08T03:21:11;101255.34;;;14.09;100.00
57568;BME280;43403;51.948;5.922;2023-08-08T03:23:38;101253.53;;;14.09;100.00
57568;BME280;43403;51.948;5.922;2023-08-08T03:26:05;101255.19;;;14.10;100.00
57568;BME280;43403;51.948;5.922;2023-08-08T03:28:31;101258.34;;;14.14;100.00
57568;BME280;43403;51.948;5.922;2023-08-08T03:30:58;101251.41;;;14.13;100.00
57568;BME280;43403;51.948;5.922;2023-08-08T03:33:24;101246.78;;;14.15;100.00
57568;BME280;43403;51.948;5.922;2023-08-08T03:35:51;101245.47;;;14.19;100.00
57568;BME280;43403;51.948;5.922;2023-08-08T03:38:17;101245.03;;;14.23;100.00
57568;BME280;43403;51.948;5.922;2023-08-08T03:40:44;101240.19;;;14.19;100.00
57568;BME280;43403;51.948;5.922;2023-08-08T03:43:10;101248.44;;;14.16;100.00
57568;BME280;43403;51.948;5.922;2023-08-08T03:45:37;101238.22;;;14.13;100.00
57568;BME280;43403;51.948;5.922;2023-08-08T03:48:04;101236.22;;;14.15;100.00
57568;BME280;43403;51.948;5.922;2023-08-08T03:50:30;101235.94;;;14.18;100.00
57568;BME280;43403;51.948;5.922;2023-08-08T03:52:57;101234.44;;;14.15;100.00
57568;BME280;43403;51.948;5.922;2023-08-08T03:55:24;101237.25;;;14.14;100.00
57568;BME280;43403;51.948;5.922;2023-08-08T03:57:51;101225.88;;;14.13;100.00
57568;BME280;43403;51.948;5.922;2023-08-08T04:00:18;101228.66;;;14.12;100.00
57568;BME280;43403;51.948;5.922;2023-08-08T04:02:44;101232.78;;;14.14;100.00
57568;BME280;43403;51.948;5.922;2023-08-08T04:05:11;101228.44;;;14.05;100.00
57568;BME280;43403;51.948;5.922;2023-08-08T04:07:38;101229.28;;;14.06;100.00
57568;BME280;43403;51.948;5.922;2023-08-08T04:10:05;101235.03;;;14.01;100.00
57568;BME280;43403;51.948;5.922;2023-08-08T04:12:32;101235.03;;;14.01;100.00
57568;BME280;43403;51.948;5.922;2023-08-08T04:14:59;101231.09;;;14.05;100.00
57568;BME280;43403;51.948;5.922;2023-08-08T04:17:26;101226.47;;;14.07;100.00
57568;BME280;43403;51.948;5.922;2023-08-08T04:19:52;101230.28;;;14.04;100.00
57568;BME280;43403;51.948;5.922;2023-08-08T04:22:19;101225.50;;;14.08;100.00
57568;BME280;43403;51.948;5.922;2023-08-08T04:24:45;101231.97;;;14.14;100.00
57568;BME280;43403;51.948;5.922;2023-08-08T04:27:12;101224.34;;;14.11;100.00
57568;BME280;43403;51.948;5.922;2023-08-08T04:29:38;101238.53;;;14.10;100.00
57568;BME280;43403;51.948;5.922;2023-08-08T04:32:05;101230.28;;;14.13;100.00
57568;BME280;43403;51.948;5.922;2023-08-08T04:34:32;101226.16;;;14.10;100.00
57568;BME280;43403;51.948;5.922;2023-08-08T04:36:58;101219.06;;;14.11;100.00
57568;BME280;43403;51.948;5.922;2023-08-08T04:39:25;101210.84;;;14.06;100.00
57568;BME280;43403;51.948;5.922;2023-08-08T04:41:51;101221.53;;;14.04;100.00
57568;BME280;43403;51.948;5.922;2023-08-08T04:44:18;101222.84;;;14.00;100.00
57568;BME280;43403;51.948;5.922;2023-08-08T04:46:44;101229.09;;;13.99;100.00
57568;BME280;43403;51.948;5.922;2023-08-08T04:49:11;101230.91;;;13.98;100.00
57568;BME280;43403;51.948;5.922;2023-08-08T04:51:38;101228.41;;;13.97;100.00
57568;BME280;43403;51.948;5.922;2023-08-08T04:54:04;101226.78;;;13.96;100.00
57568;BME280;43403;51.948;5.922;2023-08-08T04:56:31;101221.66;;;13.94;100.00
57568;BME280;43403;51.948;5.922;2023-08-08T04:58:57;101221.03;;;14.00;100.00
57568;BME280;43403;51.948;5.922;2023-08-08T05:01:24;101220.06;;;14.01;100.00
57568;BME280;43403;51.948;5.922;2023-08-08T05:03:50;101220.88;;;14.02;100.00
57568;BME280;43403;51.948;5.922;2023-08-08T05:06:20;101222.19;;;14.06;100.00
57568;BME280;43403;51.948;5.922;2023-08-08T05:08:48;101217.91;;;14.05;100.00
57568;BME280;43403;51.948;5.922;2023-08-08T05:11:15;101219.06;;;14.02;100.00
57568;BME280;43403;51.948;5.922;2023-08-08T05:13:41;101223.34;;;14.03;100.00
57568;BME280;43403;51.948;5.922;2023-08-08T05:16:09;101214.59;;;14.03;100.00
57568;BME280;43403;51.948;5.922;2023-08-08T05:18:36;101211.13;;;14.02;100.00
57568;BME280;43403;51.948;5.922;2023-08-08T05:21:02;101215.94;;;14.07;100.00
57568;BME280;43403;51.948;5.922;2023-08-08T05:23:29;101221.38;;;14.06;100.00
57568;BME280;43403;51.948;5.922;2023-08-08T05:25:55;101216.78;;;14.08;100.00
57568;BME280;43403;51.948;5.922;2023-08-08T05:28:22;101212.16;;;14.10;100.00
57568;BME280;43403;51.948;5.922;2023-08-08T05:30:49;101216.28;;;14.12;100.00
57568;BME280;43403;51.948;5.922;2023-08-08T05:33:15;101213.16;;;14.17;100.00
57568;BME280;43403;51.948;5.922;2023-08-08T05:35:42;101209.38;;;14.19;100.00
57568;BME280;43403;51.948;5.922;2023-08-08T05:38:08;101210.38;;;14.27;100.00
57568;BME280;43403;51.948;5.922;2023-08-08T05:40:35;101210.06;;;14.30;100.00
57568;BME280;43403;51.948;5.922;2023-08-08T05:43:04;101210.44;;;14.35;100.00
57568;BME280;43403;51.948;5.922;2023-08-08T05:45:31;101214.38;;;14.39;100.00
57568;BME280;43403;51.948;5.922;2023-08-08T05:47:58;101215.38;;;14.46;100.00
57568;BME280;43403;51.948;5.922;2023-08-08T05:50:27;101223.81;;;14.50;100.00
57568;BME280;43403;51.948;5.922;2023-08-08T05:52:54;101224.47;;;14.52;100.00
57568;BME280;43403;51.948;5.922;2023-08-08T05:55:21;101228.66;;;14.62;100.00
57568;BME280;43403;51.948;5.922;2023-08-08T05:57:47;101221.19;;;14.66;100.00
57568;BME280;43403;51.948;5.922;2023-08-08T06:00:14;101228.47;;;14.64;100.00
57568;BME280;43403;51.948;5.922;2023-08-08T06:02:41;101230.94;;;14.66;100.00
57568;BME280;43403;51.948;5.922;2023-08-08T06:05:08;101225.81;;;14.64;100.00
57568;BME280;43403;51.948;5.922;2023-08-08T06:07:35;101233.09;;;14.62;100.00
57568;BME280;43403;51.948;5.922;2023-08-08T06:10:02;101233.28;;;14.69;100.00
57568;BME280;43403;51.948;5.922;2023-08-08T06:12:29;101228.00;;;14.77;100.00
57568;BME280;43403;51.948;5.922;2023-08-08T06:14:55;101226.31;;;14.76;100.00
57568;BME280;43403;51.948;5.922;2023-08-08T06:17:21;101228.34;;;14.90;100.00
57568;BME280;43403;51.948;5.922;2023-08-08T06:19:50;101231.63;;;14.84;100.00
57568;BME280;43403;51.948;5.922;2023-08-08T06:22:17;101228.00;;;14.85;100.00
57568;BME280;43403;51.948;5.922;2023-08-08T06:24:43;101232.13;;;14.88;100.00
57568;BME280;43403;51.948;5.922;2023-08-08T06:27:12;101233.13;;;14.95;100.00
57568;BME280;43403;51.948;5.922;2023-08-08T06:29:39;101247.31;;;15.02;100.00
57568;BME280;43403;51.948;5.922;2023-08-08T06:32:06;101247.97;;;15.12;100.00
57568;BME280;43403;51.948;5.922;2023-08-08T06:34:33;101241.53;;;15.15;100.00
57568;BME280;43403;51.948;5.922;2023-08-08T06:36:59;101247.47;;;15.17;100.00
57568;BME280;43403;51.948;5.922;2023-08-08T06:39:26;101250.28;;;15.23;100.00
57568;BME280;43403;51.948;5.922;2023-08-08T06:41:53;101246.66;;;15.33;100.00
57568;BME280;43403;51.948;5.922;2023-08-08T06:44:21;101253.25;;;15.29;100.00
57568;BME280;43403;51.948;5.922;2023-08-08T06:46:47;101253.59;;;15.26;100.00
57568;BME280;43403;51.948;5.922;2023-08-08T06:49:14;101262.50;;;15.25;100.00
57568;BME280;43403;51.948;5.922;2023-08-08T06:51:40;101253.91;;;15.22;100.00
57568;BME280;43403;51.948;5.922;2023-08-08T06:54:07;101248.63;;;15.22;100.00
57568;BME280;43403;51.948;5.922;2023-08-08T06:56:34;101257.03;;;15.34;100.00
57568;BME280;43403;51.948;5.922;2023-08-08T06:59:01;101260.66;;;15.41;100.00
57568;BME280;43403;51.948;5.922;2023-08-08T07:01:27;101248.63;;;15.39;100.00
57568;BME280;43403;51.948;5.922;2023-08-08T07:03:54;101257.03;;;15.51;100.00
57568;BME280;43403;51.948;5.922;2023-08-08T07:06:20;101261.94;;;15.62;100.00
57568;BME280;43403;51.948;5.922;2023-08-08T07:08:47;101254.50;;;15.66;100.00
57568;BME280;43403;51.948;5.922;2023-08-08T07:11:13;101249.38;;;15.72;100.00
57568;BME280;43403;51.948;5.922;2023-08-08T07:13:40;101244.91;;;15.81;100.00
57568;BME280;43403;51.948;5.922;2023-08-08T07:16:07;101248.53;;;15.88;100.00
57568;BME280;43403;51.948;5.922;2023-08-08T07:18:34;101270.19;;;15.84;100.00
57568;BME280;43403;51.948;5.922;2023-08-08T07:21:00;101244.53;;;15.92;100.00
57568;BME280;43403;51.948;5.922;2023-08-08T07:23:27;101248.53;;;15.88;100.00
57568;BME280;43403;51.948;5.922;2023-08-08T07:25:53;101232.63;;;15.96;100.00
57568;BME280;43403;51.948;5.922;2023-08-08T07:28:20;101235.22;;;16.05;100.00
57568;BME280;43403;51.948;5.922;2023-08-08T07:30:46;101224.97;;;16.10;100.00
57568;BME280;43403;51.948;5.922;2023-08-08T07:33:13;101235.03;;;16.14;100.00
57568;BME280;43403;51.948;5.922;2023-08-08T07:35:40;101233.22;;;16.07;100.00
57568;BME280;43403;51.948;5.922;2023-08-08T07:38:06;101233.16;;;16.23;100.00
57568;BME280;43403;51.948;5.922;2023-08-08T07:40:33;101229.88;;;16.21;100.00
57568;BME280;43403;51.948;5.922;2023-08-08T07:43:00;101224.59;;;16.21;100.00
57568;BME280;43403;51.948;5.922;2023-08-08T07:45:26;101229.47;;;16.32;100.00
57568;BME280;43403;51.948;5.922;2023-08-08T07:47:53;101229.81;;;16.29;100.00
57568;BME280;43403;51.948;5.922;2023-08-08T07:50:19;101238.69;;;16.36;100.00
57568;BME280;43403;51.948;5.922;2023-08-08T07:52:46;101232.53;;;16.44;100.00
57568;BME280;43403;51.948;5.922;2023-08-08T07:55:12;101239.13;;;16.48;100.00
57568;BME280;43403;51.948;5.922;2023-08-08T07:57:39;101232.31;;;16.54;100.00
57568;BME280;43403;51.948;5.922;2023-08-08T08:00:06;101233.59;;;16.58;100.00
57568;BME280;43403;51.948;5.922;2023-08-08T08:02:42;101220.03;;;16.61;100.00
57568;BME280;43403;51.948;5.922;2023-08-08T08:05:09;101222.28;;;16.72;100.00
57568;BME280;43403;51.948;5.922;2023-08-08T08:07:36;101222.88;;;16.83;100.00
57568;BME280;43403;51.948;5.922;2023-08-08T08:10:06;101224.63;;;16.90;100.00
57568;BME280;43403;51.948;5.922;2023-08-08T08:12:33;101235.63;;;16.79;98.28
57568;BME280;43403;51.948;5.922;2023-08-08T08:15:01;101230.50;;;16.77;97.75
57568;BME280;43403;51.948;5.922;2023-08-08T08:17:28;101229.16;;;16.82;99.83
57568;BME280;43403;51.948;5.922;2023-08-08T08:19:54;101234.81;;;16.78;96.78
57568;BME280;43403;51.948;5.922;2023-08-08T08:22:21;101231.22;;;16.94;96.85
57568;BME280;43403;51.948;5.922;2023-08-08T08:24:47;101218.38;;;17.06;99.17
57568;BME280;43403;51.948;5.922;2023-08-08T08:27:14;101224.53;;;17.22;96.25
57568;BME280;43403;51.948;5.922;2023-08-08T08:29:41;101223.25;;;17.32;94.52
57568;BME280;43403;51.948;5.922;2023-08-08T08:32:07;101225.44;;;17.29;88.98
57568;BME280;43403;51.948;5.922;2023-08-08T08:34:34;101221.28;;;17.49;89.66
57568;BME280;43403;51.948;5.922;2023-08-08T08:37:00;101210.47;;;17.66;91.63
57568;BME280;43403;51.948;5.922;2023-08-08T08:39:27;101219.34;;;17.73;85.55
57568;BME280;43403;51.948;5.922;2023-08-08T08:41:58;101212.47;;;17.78;86.32
57568;BME280;43403;51.948;5.922;2023-08-08T08:44:30;101231.25;;;17.92;81.02
57568;BME280;43403;51.948;5.922;2023-08-08T08:47:07;101232.16;;;17.99;85.02
57568;BME280;43403;51.948;5.922;2023-08-08T08:49:38;101233.13;;;18.13;85.74
57568;BME280;43403;51.948;5.922;2023-08-08T08:52:05;101224.00;;;18.15;80.91
57568;BME280;43403;51.948;5.922;2023-08-08T08:54:32;101228.16;;;18.25;81.09
57568;BME280;43403;51.948;5.922;2023-08-08T08:57:01;101217.53;;;18.25;81.83
57568;BME280;43403;51.948;5.922;2023-08-08T08:59:28;101233.69;;;18.08;79.38
57568;BME280;43403;51.948;5.922;2023-08-08T09:01:55;101211.44;;;18.46;84.28
57568;BME280;43403;51.948;5.922;2023-08-08T09:04:22;101223.91;;;18.45;77.89
57568;BME280;43403;51.948;5.922;2023-08-08T09:06:50;101227.22;;;18.32;76.77
57568;BME280;43403;51.948;5.922;2023-08-08T09:09:17;101220.88;;;18.12;75.72
57568;BME280;43403;51.948;5.922;2023-08-08T09:11:49;101215.28;;;18.22;74.90
57568;BME280;43403;51.948;5.922;2023-08-08T09:14:21;101234.47;;;18.38;74.37
57568;BME280;43403;51.948;5.922;2023-08-08T09:16:48;101222.81;;;18.40;76.05
57568;BME280;43403;51.948;5.922;2023-08-08T09:19:16;101219.31;;;18.17;72.20
57568;BME280;43403;51.948;5.922;2023-08-08T09:21:44;101226.56;;;18.09;72.59
57568;BME280;43403;51.948;5.922;2023-08-08T09:24:11;101214.53;;;18.28;77.58
57568;BME280;43403;51.948;5.922;2023-08-08T09:26:39;101233.59;;;18.16;73.46
57568;BME280;43403;51.948;5.922;2023-08-08T09:29:06;101227.66;;;18.51;72.55
57568;BME280;43403;51.948;5.922;2023-08-08T09:31:34;101226.50;;;18.60;66.16
57568;BME280;43403;51.948;5.922;2023-08-08T09:34:01;101231.06;;;18.45;65.11
57568;BME280;43403;51.948;5.922;2023-08-08T09:36:29;101229.72;;;18.77;65.74
57568;BME280;43403;51.948;5.922;2023-08-08T09:38:59;101227.69;;;18.79;69.99
57568;BME280;43403;51.948;5.922;2023-08-08T09:41:26;101236.81;;;18.91;67.06
57568;BME280;43403;51.948;5.922;2023-08-08T09:43:53;101241.91;;;18.86;66.13
57568;BME280;43403;51.948;5.922;2023-08-08T09:46:21;101230.31;;;18.94;67.65
57568;BME280;43403;51.948;5.922;2023-08-08T09:48:48;101227.53;;;19.02;67.24
57568;BME280;43403;51.948;5.922;2023-08-08T09:51:16;101235.06;;;18.99;71.89
57568;BME280;43403;51.948;5.922;2023-08-08T09:53:43;101229.09;;;18.75;72.14
57568;BME280;43403;51.948;5.922;2023-08-08T09:56:11;101226.56;;;18.67;73.92
57568;BME280;43403;51.948;5.922;2023-08-08T09:58:38;101241.13;;;18.71;76.30
57568;BME280;43403;51.948;5.922;2023-08-08T10:01:05;101240.44;;;18.62;71.96
57568;BME280;43403;51.948;5.922;2023-08-08T10:03:33;101240.75;;;18.52;70.73
57568;BME280;43403;51.948;5.922;2023-08-08T10:06:01;101239.03;;;18.66;70.05
57568;BME280;43403;51.948;5.922;2023-08-08T10:08:28;101230.63;;;19.06;72.67
57568;BME280;43403;51.948;5.922;2023-08-08T10:10:56;101223.00;;;19.59;74.65
57568;BME280;43403;51.948;5.922;2023-08-08T10:13:24;101225.47;;;19.95;69.94
57568;BME280;43403;51.948;5.922;2023-08-08T10:15:52;101235.69;;;19.92;69.89
57568;BME280;43403;51.948;5.922;2023-08-08T10:18:21;101231.31;;;19.78;68.93
57568;BME280;43403;51.948;5.922;2023-08-08T10:20:49;101229.69;;;19.77;69.60
57568;BME280;43403;51.948;5.922;2023-08-08T10:23:17;101233.84;;;19.58;69.08
57568;BME280;43403;51.948;5.922;2023-08-08T10:25:48;101244.16;;;19.39;71.02
57568;BME280;43403;51.948;5.922;2023-08-08T10:28:18;101226.78;;;19.71;69.90
57568;BME280;43403;51.948;5.922;2023-08-08T10:35:56;101248.34;;;19.83;65.18
57568;BME280;43403;51.948;5.922;2023-08-08T10:38:27;101239.50;;;19.48;65.85
57568;BME280;43403;51.948;5.922;2023-08-08T10:41:04;101236.47;;;19.51;68.10
57568;BME280;43403;51.948;5.922;2023-08-08T10:43:31;101243.75;;;19.42;68.10
57568;BME280;43403;51.948;5.922;2023-08-08T10:45:59;101248.50;;;19.19;66.63
57568;BME280;43403;51.948;5.922;2023-08-08T10:48:50;101236.91;;;19.26;70.68
57568;BME280;43403;51.948;5.922;2023-08-08T10:51:16;101255.38;;;18.85;68.17
57568;BME280;43403;51.948;5.922;2023-08-08T10:53:43;101239.81;;;18.82;71.44
57568;BME280;43403;51.948;5.922;2023-08-08T10:56:13;101244.81;;;18.91;72.58
57568;BME280;43403;51.948;5.922;2023-08-08T10:58:47;101246.13;;;19.30;71.43
57568;BME280;43403;51.948;5.922;2023-08-08T11:01:14;101239.66;;;19.40;72.08
57568;BME280;43403;51.948;5.922;2023-08-08T11:03:43;101248.00;;;19.65;72.19
57568;BME280;43403;51.948;5.922;2023-08-08T11:06:10;101243.59;;;19.79;66.10
57568;BME280;43403;51.948;5.922;2023-08-08T11:08:37;101225.84;;;19.92;64.75
57568;BME280;43403;51.948;5.922;2023-08-08T11:11:05;101229.59;;;20.05;65.12
57568;BME280;43403;51.948;5.922;2023-08-08T11:13:33;101229.63;;;20.18;61.59
57568;BME280;43403;51.948;5.922;2023-08-08T11:16:00;101233.19;;;20.52;63.59
57568;BME280;43403;51.948;5.922;2023-08-08T11:18:29;101237.06;;;20.36;62.79
57568;BME280;43403;51.948;5.922;2023-08-08T11:20:57;101233.88;;;20.61;61.02
57568;BME280;43403;51.948;5.922;2023-08-08T11:23:46;101228.75;;;20.72;58.59
57568;BME280;43403;51.948;5.922;2023-08-08T11:26:12;101228.38;;;20.82;58.83
57568;BME280;43403;51.948;5.922;2023-08-08T11:28:49;101221.59;;;20.73;58.50
57568;BME280;43403;51.948;5.922;2023-08-08T11:31:18;101223.84;;;20.76;61.07
57568;BME280;43403;51.948;5.922;2023-08-08T11:33:47;101230.19;;;20.95;60.46
57568;BME280;43403;51.948;5.922;2023-08-08T11:36:14;101228.56;;;20.61;59.55
57568;BME280;43403;51.948;5.922;2023-08-08T11:38:42;101227.25;;;20.50;60.42
57568;BME280;43403;51.948;5.922;2023-08-08T11:41:16;101221.94;;;20.43;61.96
57568;BME280;43403;51.948;5.922;2023-08-08T11:43:44;101217.50;;;20.09;63.19
57568;BME280;43403;51.948;5.922;2023-08-08T11:46:14;101221.41;;;20.13;65.10
57568;BME280;43403;51.948;5.922;2023-08-08T11:48:41;101223.94;;;20.21;67.18
57568;BME280;43403;51.948;5.922;2023-08-08T11:51:09;101216.78;;;20.35;64.25
57568;BME280;43403;51.948;5.922;2023-08-08T11:53:36;101222.19;;;20.75;63.80
57568;BME280;43403;51.948;5.922;2023-08-08T11:56:13;101221.19;;;20.96;61.06
57568;BME280;43403;51.948;5.922;2023-08-08T11:58:40;101205.81;;;20.78;58.59
57568;BME280;43403;51.948;5.922;2023-08-08T12:01:06;101211.75;;;20.80;60.63
57568;BME280;43403;51.948;5.922;2023-08-08T12:03:37;101210.28;;;20.78;61.18
57568;BME280;43403;51.948;5.922;2023-08-08T12:06:12;101211.34;;;21.10;63.29
57568;BME280;43403;51.948;5.922;2023-08-08T12:08:41;101199.34;;;21.59;61.98
57568;BME280;43403;51.948;5.922;2023-08-08T12:11:11;101205.22;;;21.88;62.76
57568;BME280;43403;51.948;5.922;2023-08-08T12:13:41;101204.91;;;22.09;58.62
57568;BME280;43403;51.948;5.922;2023-08-08T12:16:13;101208.25;;;21.98;57.98
57568;BME280;43403;51.948;5.922;2023-08-08T12:18:43;101206.88;;;22.21;61.68
57568;BME280;43403;51.948;5.922;2023-08-08T12:21:10;101199.72;;;22.21;59.27
57568;BME280;43403;51.948;5.922;2023-08-08T12:23:37;101210.91;;;21.98;56.75
57568;BME280;43403;51.948;5.922;2023-08-08T12:26:04;101212.16;;;21.96;57.72
57568;BME280;43403;51.948;5.922;2023-08-08T12:28:33;101209.31;;;21.90;59.94
57568;BME280;43403;51.948;5.922;2023-08-08T12:31:01;101214.53;;;21.65;56.79
57568;BME280;43403;51.948;5.922;2023-08-08T12:33:28;101202.63;;;21.68;56.79
57568;BME280;43403;51.948;5.922;2023-08-08T12:35:54;101214.97;;;21.62;56.41
57568;BME280;43403;51.948;5.922;2023-08-08T12:38:21;101197.72;;;21.58;59.55
57568;BME280;43403;51.948;5.922;2023-08-08T12:40:48;101203.13;;;21.25;57.43
57568;BME280;43403;51.948;5.922;2023-08-08T12:43:14;101201.25;;;21.39;56.74
57568;BME280;43403;51.948;5.922;2023-08-08T12:45:44;101215.16;;;21.54;58.07
57568;BME280;43403;51.948;5.922;2023-08-08T12:48:12;101187.09;;;21.45;57.42
57568;BME280;43403;51.948;5.922;2023-08-08T12:50:39;101214.00;;;21.23;58.49